Time;durP1;ratioP1;P1;durP2;ratioP2;P2;SDS_P1;SDS_P2;PMS_P1;PMS_P2;Temp;Humidity;BMP_temperature;BMP_pressure;BME280_temperature;BME280_humidity;BME280_pressure;Samples;Min_cycle;Max_cycle;Signal;HPM_P1;HPM_P2
2022/06/03 00:01:22;;;;;;;15.52;6.75;;;7.40;99.90;;;;;;5008292;28;20081;-45
2022/06/03 00:03:51;;;;;;;10.90;6.78;;;7.40;99.90;;;;;;5006907;28;20513;-48
2022/06/03 00:06:25;;;;;;;13.02;6.57;;;7.30;99.90;;;;;;5008514;28;20437;-46
2022/06/03 00:09:09;;;;;;;9.52;6.80;;;7.30;99.90;;;;;;5008002;28;20564;-45
2022/06/03 00:11:50;;;;;;;11.75;6.00;;;7.30;99.90;;;;;;5008637;28;20050;-47
2022/06/03 00:14:24;;;;;;;10.27;6.00;;;7.20;99.90;;;;;;5008661;28;20046;-46
2022/06/03 00:17:12;;;;;;;7.90;6.63;;;7.20;99.90;;;;;;5008336;28;20092;-46
2022/06/03 00:20:02;;;;;;;12.63;6.57;;;7.10;99.90;;;;;;5008214;28;20105;-45
2022/06/03 00:22:44;;;;;;;11.77;5.88;;;7.10;99.90;;;;;;5008400;28;20112;-45
2022/06/03 00:25:15;;;;;;;12.23;6.60;;;7.00;99.90;;;;;;5008209;28;20038;-45
2022/06/03 00:28:38;;;;;;;9.52;7.38;;;7.00;99.90;;;;;;5008242;28;20046;-49
2022/06/03 00:31:19;;;;;;;;;;;7.00;99.90;;;;;;5005789;28;20482;-47
2022/06/03 00:34:06;;;;;;;18.60;8.02;;;7.00;99.90;;;;;;5005373;28;19971;-46
2022/06/03 00:37:00;;;;;;;14.65;6.78;;;7.00;99.90;;;;;;5007064;28;20053;-46
2022/06/03 00:39:49;;;;;;;10.82;7.22;;;7.10;99.90;;;;;;5008340;28;20050;-47
2022/06/03 00:43:11;;;;;;;13.30;7.10;;;7.10;99.90;;;;;;5006573;28;20461;-46
2022/06/03 00:46:09;;;;;;;19.47;7.47;;;7.10;99.90;;;;;;5005265;28;20050;-49
2022/06/03 00:49:02;;;;;;;10.70;7.32;;;7.00;99.90;;;;;;5007442;28;20100;-50
2022/06/03 00:51:45;;;;;;;;;;;7.00;99.90;;;;;;5011722;28;20591;-48
2022/06/03 00:54:29;;;;;;;12.25;6.68;;;7.10;99.90;;;;;;5012042;28;19921;-49
2022/06/03 00:57:28;;;;;;;16.52;7.60;;;6.90;99.90;;;;;;5012219;28;20049;-45
2022/06/03 01:00:12;;;;;;;17.55;7.75;;;7.00;99.90;;;;;;5011875;28;20548;-47
2022/06/03 01:03:15;;;;;;;14.20;7.93;;;7.40;99.90;;;;;;5011783;28;20052;-46
2022/06/03 01:06:21;;;;;;;10.48;7.45;;;7.10;99.90;;;;;;5011789;28;20045;-47
2022/06/03 01:08:58;;;;;;;11.68;8.23;;;7.20;99.90;;;;;;5010022;28;20129;-46
2022/06/03 01:12:09;;;;;;;12.65;8.20;;;7.30;99.90;;;;;;5011587;28;20053;-45
2022/06/03 01:14:53;;;;;;;12.38;7.63;;;7.30;99.90;;;;;;5011991;28;20045;-47
2022/06/03 01:17:33;;;;;;;11.93;7.63;;;7.40;99.90;;;;;;5011409;28;20547;-49
2022/06/03 01:20:11;;;;;;;10.10;7.55;;;7.40;99.90;;;;;;5011087;28;20052;-48
2022/06/03 01:22:37;;;;;;;12.48;8.45;;;7.30;99.90;;;;;;5010354;28;20149;-45
2022/06/03 01:25:23;;;;;;;12.30;7.85;;;7.10;99.90;;;;;;5011244;28;20128;-45
2022/06/03 01:28:08;;;;;;;12.90;7.43;;;7.30;99.90;;;;;;5011360;28;20121;-46
2022/06/03 01:31:11;;;;;;;14.98;7.35;;;7.00;99.90;;;;;;5011035;28;20081;-46
2022/06/03 01:34:03;;;;;;;15.43;8.27;;;7.10;99.90;;;;;;5010545;28;20061;-45
2022/06/03 01:36:40;;;;;;;10.63;7.75;;;7.10;99.90;;;;;;5011143;28;20049;-46
2022/06/03 01:39:28;;;;;;;11.60;7.60;;;7.00;99.90;;;;;;5009611;28;20053;-47
2022/06/03 01:42:16;;;;;;;11.48;7.18;;;6.90;99.90;;;;;;5010962;28;20496;-45
2022/06/03 01:45:15;;;;;;;13.77;7.57;;;6.80;99.90;;;;;;5010930;28;20477;-46
2022/06/03 01:48:04;;;;;;;11.85;7.05;;;6.70;99.90;;;;;;5010996;28;20046;-45
2022/06/03 01:50:40;;;;;;;11.60;7.63;;;6.60;99.90;;;;;;5011133;28;20038;-45
2022/06/03 01:53:24;;;;;;;15.60;8.45;;;;;;;;;;5010864;28;20486;-46
2022/06/03 01:56:11;;;;;;;14.32;9.27;;;6.50;99.90;;;;;;5010640;28;20520;-48
2022/06/03 01:59:10;;;;;;;13.10;9.13;;;6.60;99.90;;;;;;5010298;28;20357;-45
2022/06/03 02:02:00;;;;;;;14.43;9.93;;;6.60;99.90;;;;;;5010584;28;20046;-47
2022/06/03 02:04:48;;;;;;;15.60;10.35;;;6.60;99.90;;;;;;5010561;28;20045;-46
2022/06/03 02:07:34;;;;;;;17.10;10.13;;;6.70;99.90;;;;;;5010375;28;20045;-46
2022/06/03 02:10:33;;;;;;;14.70;10.00;;;6.70;99.90;;;;;;5009942;28;20063;-46
2022/06/03 02:12:59;;;;;;;18.98;10.80;;;6.80;99.90;;;;;;5010213;28;20603;-45
2022/06/03 02:16:02;;;;;;;14.50;10.00;;;6.80;99.90;;;;;;5010817;28;20042;-47
2022/06/03 02:18:42;;;;;;;17.17;10.57;;;6.80;99.90;;;;;;5007786;28;20057;-47
2022/06/03 02:21:31;;;;;;;14.98;10.65;;;6.90;99.90;;;;;;5009871;28;20072;-46
2022/06/03 02:24:34;;;;;;;15.75;9.75;;;6.90;99.90;;;;;;5010277;28;20042;-45
2022/06/03 02:27:00;;;;;;;20.13;10.38;;;6.90;99.90;;;;;;5009705;28;20497;-47
2022/06/03 02:33:00;;;;;;;17.17;11.07;;;7.40;99.90;;;;;;5010200;28;20042;-47
2022/06/03 02:35:41;;;;;;;16.95;11.05;;;6.90;99.90;;;;;;5007415;28;20060;-44
2022/06/03 02:38:36;;;;;;;17.52;11.20;;;6.90;99.90;;;;;;5009589;28;20093;-47
2022/06/03 02:41:21;;;;;;;19.40;11.55;;;7.00;99.90;;;;;;5007019;28;20058;-46
2022/06/03 02:44:14;;;;;;;18.90;11.27;;;7.00;99.90;;;;;;5010049;28;20041;-47
2022/06/03 02:46:54;;;;;;;;;;;7.00;99.90;;;;;;5010619;28;20073;-46
2022/06/03 02:49:48;;;;;;;19.67;11.77;;;6.90;99.90;;;;;;5009796;28;19921;-45
2022/06/03 02:52:46;;;;;;;18.63;11.23;;;6.90;99.90;;;;;;5009663;28;20075;-46
2022/06/03 02:55:37;;;;;;;20.85;10.60;;;6.90;99.90;;;;;;5010565;28;20116;-45
2022/06/03 02:58:34;;;;;;;21.38;11.50;;;4.30;99.90;;;;;;5009422;28;20050;-46
2022/06/03 03:01:33;;;;;;;15.60;11.30;;;6.90;99.90;;;;;;5009711;28;20052;-45
2022/06/03 03:04:20;;;;;;;15.93;10.52;;;6.90;99.90;;;;;;5009272;28;20659;-45
2022/06/03 03:07:05;;;;;;;17.65;11.00;;;7.00;99.90;;;;;;5009329;28;20565;-46
2022/06/03 03:09:36;;;;;;;16.83;10.35;;;7.00;99.90;;;;;;5009291;28;20049;-45
2022/06/03 03:12:02;;;;;;;20.23;11.60;;;6.90;99.90;;;;;;5008585;28;20433;-49
2022/06/03 03:14:57;;;;;;;17.25;11.65;;;6.80;99.90;;;;;;5009542;28;20057;-46
2022/06/03 03:17:46;;;;;;;17.50;11.43;;;6.80;99.90;;;;;;5009122;28;20045;-45
2022/06/03 03:20:22;;;;;;;14.70;10.55;;;6.80;99.90;;;;;;5009113;28;20052;-45
2022/06/03 03:23:03;;;;;;;15.63;10.73;;;6.80;99.90;;;;;;5009086;28;20442;-45
2022/06/03 03:26:12;;;;;;;18.35;11.07;;;6.70;99.90;;;;;;5009323;28;20129;-46
2022/06/03 03:29:06;;;;;;;20.05;12.05;;;6.70;99.90;;;;;;5008866;28;20524;-45
2022/06/03 03:31:45;;;;;;;17.35;10.35;;;6.70;99.90;;;;;;5007541;28;20401;-45
2022/06/03 03:34:44;;;;;;;19.23;11.25;;;6.60;99.90;;;;;;5008992;28;20112;-46
2022/06/03 03:37:41;;;;;;;16.75;10.40;;;6.60;99.90;;;;;;5008839;28;20038;-46
2022/06/03 03:40:40;;;;;;;16.25;10.90;;;6.50;99.90;;;;;;5008908;28;20046;-45
2022/06/03 03:43:31;;;;;;;18.95;11.18;;;6.40;99.90;;;;;;5008773;28;20535;-46
2022/06/03 03:46:18;;;;;;;17.95;11.25;;;6.30;99.90;;;;;;5007654;28;20060;-46
2022/06/03 03:49:02;;;;;;;29.40;10.68;;;6.30;99.90;;;;;;5008891;28;20408;-45
2022/06/03 03:51:37;;;;;;;18.38;12.05;;;6.30;99.90;;;;;;5009024;28;20050;-45
2022/06/03 03:54:21;;;;;;;19.42;11.93;;;6.40;99.90;;;;;;5008478;28;20497;-45
2022/06/03 03:57:02;;;;;;;20.55;12.02;;;6.40;99.90;;;;;;5008774;28;20050;-46
2022/06/03 03:59:40;;;;;;;19.50;13.07;;;6.50;99.90;;;;;;5008912;28;20165;-46
2022/06/03 04:02:30;;;;;;;20.65;12.18;;;6.60;99.90;;;;;;5008999;28;20046;-46
2022/06/03 04:05:26;;;;;;;19.20;12.57;;;6.80;99.90;;;;;;5009044;28;20046;-45
2022/06/03 04:08:29;;;;;;;21.55;12.27;;;7.00;99.90;;;;;;5009100;28;20041;-45
2022/06/03 04:11:12;;;;;;;21.17;12.80;;;7.20;99.90;;;;;;5007783;28;20133;-45
2022/06/03 04:13:50;;;;;;;21.10;12.82;;;7.40;99.90;;;;;;5008832;28;20045;-46
2022/06/03 04:16:31;;;;;;;21.92;13.10;;;7.60;99.90;;;;;;5008431;28;20444;-47
2022/06/03 04:19:06;;;;;;;18.33;12.57;;;7.80;99.90;;;;;;5008569;28;20050;-45
2022/06/03 04:22:05;;;;;;;15.38;11.63;;;7.90;99.90;;;;;;5009158;28;20038;-45
2022/06/03 04:25:18;;;;;;;15.80;11.27;;;8.70;99.90;;;;;;5012503;28;20042;-47
2022/06/03 04:28:12;;;;;;;15.50;9.43;;;10.50;99.90;;;;;;5010778;28;20077;-46
2022/06/03 04:30:46;;;;;;;14.75;8.80;;;11.70;99.90;;;;;;5012351;28;20093;-46
2022/06/03 04:33:42;;;;;;;9.77;7.32;;;11.00;99.90;;;;;;5012376;28;20103;-45
2022/06/03 04:36:19;;;;;;;9.50;7.78;;;10.70;99.90;;;;;;5012387;28;20231;-46
2022/06/03 04:38:51;;;;;;;10.85;7.15;;;10.50;99.90;;;;;;5012049;28;20049;-44
2022/06/03 04:41:41;;;;;;;12.30;8.27;;;10.10;99.90;;;;;;5011905;28;20189;-47
2022/06/03 04:44:32;;;;;;;9.10;7.20;;;9.80;99.90;;;;;;5011641;28;20053;-46
2022/06/03 04:47:26;;;;;;;12.32;7.20;;;9.60;99.90;;;;;;5012063;28;20443;-46
2022/06/03 04:49:57;;;;;;;10.77;6.80;;;9.60;99.90;;;;;;5012072;28;20049;-48
2022/06/03 04:52:53;;;;;;;12.63;7.43;;;9.60;99.90;;;;;;5012262;28;20042;-46
2022/06/03 04:55:30;;;;;;;9.30;7.78;;;9.60;99.90;;;;;;5011887;28;20045;-46
2022/06/03 04:58:33;;;;;;;16.35;8.25;;;9.70;99.90;;;;;;5012087;28;20042;-45
2022/06/03 05:01:23;;;;;;;14.73;9.25;;;9.80;99.90;;;;;;5011550;28;20038;-45
2022/06/03 05:04:13;;;;;;;13.95;8.35;;;10.00;99.90;;;;;;5011408;28;20489;-45
2022/06/03 05:07:30;;;;;;;16.30;9.90;;;10.20;99.90;;;;;;5011271;28;20486;-46
2022/06/03 05:10:26;;;;;;;10.73;7.45;;;10.40;99.90;;;;;;5011506;28;20662;-46
2022/06/03 05:13:29;;;;;;;11.45;8.13;;;10.60;99.90;;;;;;5011635;28;20177;-46
2022/06/03 05:16:13;;;;;;;;;;;10.80;99.90;;;;;;5011659;28;20103;-49
2022/06/03 05:19:17;;;;;;;12.13;7.93;;;11.00;99.90;;;;;;5011259;28;19925;-45
2022/06/03 05:22:26;;;;;;;9.52;7.70;;;11.60;99.90;;;;;;5011504;28;20437;-45
2022/06/03 05:25:23;;;;;;;9.30;6.70;;;12.00;99.90;;;;;;5011367;28;20124;-45
2022/06/03 05:27:55;;;;;;;9.85;5.95;;;14.00;99.90;;;;;;5011758;28;20053;-46
2022/06/03 05:30:58;;;;;;;9.35;5.93;;;15.70;99.90;;;;;;5011306;28;20041;-45
2022/06/03 05:34:01;;;;;;;10.15;5.53;;;16.00;99.90;;;;;;5010399;28;20788;-46
2022/06/03 05:36:33;;;;;;;9.63;5.10;;;15.60;99.90;;;;;;5010744;28;20048;-47
2022/06/03 05:39:35;;;;;;;10.55;5.28;;;15.10;99.90;;;;;;5011098;28;20050;-46
2022/06/03 05:42:28;;;;;;;7.30;5.95;;;14.80;99.90;;;;;;5009593;28;20112;-44
2022/06/03 05:45:28;;;;;;;8.20;5.40;;;15.00;99.90;;;;;;5011636;28;20052;-46
2022/06/03 05:47:56;;;;;;;8.82;4.68;;;14.90;99.90;;;;;;5010768;28;20042;-45
2022/06/03 05:50:42;;;;;;;7.53;5.05;;;14.90;99.90;;;;;;5010729;28;20049;-45
2022/06/03 05:53:54;;;;;;;10.55;5.78;;;15.00;99.90;;;;;;5011219;28;20046;-45
2022/06/03 05:56:32;;;;;;;7.75;5.00;;;15.00;99.90;;;;;;5011178;28;20371;-45
2022/06/03 05:59:35;;;;;;;6.53;4.80;;;15.20;99.90;;;;;;5010768;28;20508;-45
2022/06/03 06:02:20;;;;;;;8.77;4.93;;;15.30;99.90;;;;;;4993263;28;20060;-45
2022/06/03 06:05:04;;;;;;;7.63;5.32;;;15.40;99.90;;;;;;5010122;28;20053;-47
2022/06/03 06:07:38;;;;;;;7.00;4.75;;;15.50;99.90;;;;;;5010568;28;20117;-46
2022/06/03 06:10:35;;;;;;;10.05;5.13;;;15.80;99.90;;;;;;5010166;28;20065;-45
2022/06/03 06:13:21;;;;;;;10.05;4.75;;;16.30;99.90;;;;;;5010452;28;20058;-46
2022/06/03 06:15:56;;;;;;;6.95;4.93;;;16.70;99.90;;;;;;5010082;28;20053;-44
2022/06/03 06:18:42;;;;;;;6.03;3.97;;;18.10;99.90;;;;;;5010699;28;20050;-45
2022/06/03 06:21:23;;;;;;;7.00;3.88;;;19.30;92.00;;;;;;5010180;28;20049;-45
2022/06/03 06:23:57;;;;;;;6.82;4.32;;;20.30;87.30;;;;;;5010061;28;20053;-47
2022/06/03 06:26:44;;;;;;;5.00;3.53;;;20.80;88.40;;;;;;5010196;28;20176;-45
2022/06/03 06:29:31;;;;;;;6.60;4.25;;;21.80;84.80;;;;;;5009934;28;20046;-45
2022/06/03 06:32:28;;;;;;;5.22;4.00;;;23.50;75.00;;;;;;5010348;28;20045;-45
2022/06/03 06:35:03;;;;;;;4.70;3.33;;;24.70;73.90;;;;;;5010007;28;20560;-44
2022/06/03 06:37:43;;;;;;;4.40;2.75;;;25.80;71.00;;;;;;5009871;28;20046;-45
2022/06/03 06:40:31;;;;;;;4.95;3.17;;;26.30;65.10;;;;;;5009637;28;20103;-43
2022/06/03 06:43:30;;;;;;;3.85;2.30;;;26.60;63.10;;;;;;5009587;28;20050;-45
2022/06/03 06:46:31;;;;;;;3.55;2.17;;;27.30;58.50;;;;;;5008581;28;20046;-45
2022/06/03 06:49:11;;;;;;;4.45;3.03;;;28.00;60.30;;;;;;5006786;28;20563;-43
2022/06/03 06:51:52;;;;;;;4.43;2.08;;;28.70;56.70;;;;;;5009479;28;20054;-43
2022/06/03 06:54:17;;;;;;;3.35;1.15;;;29.20;51.00;;;;;;5009698;28;20042;-45
2022/06/03 06:56:52;;;;;;;3.15;1.75;;;29.50;54.60;;;;;;5009526;28;20208;-45
2022/06/03 06:59:21;;;;;;;2.63;1.27;;;29.90;52.70;;;;;;5009803;28;20503;-43
2022/06/03 07:02:17;;;;;;;4.93;1.00;;;30.30;52.90;;;;;;5009189;28;20378;-44
2022/06/03 07:04:50;;;;;;;3.58;1.40;;;30.80;49.90;;;;;;5009317;28;20556;-44
2022/06/03 07:07:55;;;;;;;3.50;1.73;;;31.10;50.00;;;;;;5009979;28;20037;-44
2022/06/03 07:10:31;;;;;;;4.03;1.55;;;31.20;47.60;;;;;;5009405;28;20062;-44
2022/06/03 07:13:20;;;;;;;5.57;2.00;;;31.10;50.00;;;;;;5009221;28;20033;-44
2022/06/03 07:16:15;;;;;;;2.47;1.23;;;31.40;48.10;;;;;;5007731;28;20405;-43
2022/06/03 07:22:11;;;;;;;4.22;1.45;;;31.40;48.20;;;;;;5007009;28;20509;-47
2022/06/03 07:25:09;;;;;;;2.63;1.10;;;31.90;47.80;;;;;;5009134;28;20437;-43
2022/06/03 07:27:55;;;;;;;8.60;1.33;;;32.00;46.30;;;;;;5009212;28;20080;-44
2022/06/03 07:31:02;;;;;;;4.32;1.30;;;32.00;42.60;;;;;;5008885;28;20038;-45
2022/06/03 07:33:30;;;;;;;3.83;1.17;;;31.80;44.30;;;;;;4976043;28;20119;-41
2022/06/03 07:36:03;;;;;;;3.30;1.60;;;32.00;45.10;;;;;;5002823;28;20045;-42
2022/06/03 07:38:33;;;;;;;3.05;1.05;;;32.00;45.00;;;;;;5007047;28;20485;-42
2022/06/03 07:41:10;;;;;;;3.38;1.25;;;31.90;44.70;;;;;;5006429;28;20077;-42
2022/06/03 07:43:42;;;;;;;2.85;1.10;;;32.20;44.70;;;;;;5006878;28;20343;-41
2022/06/03 07:46:30;;;;;;;3.47;1.50;;;32.30;43.50;;;;;;5007268;28;20046;-42
2022/06/03 07:48:56;;;;;;;3.15;1.38;;;32.60;44.50;;;;;;5007305;28;20038;-41
2022/06/03 07:51:31;;;;;;;3.80;1.40;;;32.50;45.00;;;;;;5007069;28;20050;-41
2022/06/03 07:54:07;;;;;;;3.08;1.20;;;32.50;43.20;;;;;;5006661;28;20046;-41
2022/06/03 07:56:37;;;;;;;3.65;1.50;;;32.90;45.00;;;;;;5006395;28;20120;-43
2022/06/03 07:59:18;;;;;;;2.95;1.45;;;33.00;44.30;;;;;;5006945;28;20050;-43
2022/06/03 08:01:57;;;;;;;3.60;1.33;;;33.10;43.60;;;;;;5006686;28;20476;-43
2022/06/03 08:04:31;;;;;;;3.88;1.45;;;33.10;43.90;;;;;;5005572;28;20345;-43
2022/06/03 08:12:34;;;;;;;3.53;1.20;;;33.40;43.80;;;;;;5008816;28;20096;-39
2022/06/03 08:15:17;;;;;;;2.03;0.80;;;33.90;43.60;;;;;;5008625;28;20041;-39
2022/06/03 08:17:45;;;;;;;5.22;1.40;;;33.60;42.30;;;;;;5008542;28;20099;-38
2022/06/03 08:20:14;;;;;;;3.85;1.08;;;33.50;42.90;;;;;;5008709;28;20053;-38
2022/06/03 08:22:41;;;;;;;4.25;1.45;;;33.50;42.90;;;;;;5008606;28;20042;-38
2022/06/03 08:25:08;;;;;;;2.45;1.20;;;33.80;42.70;;;;;;5008542;28;20033;-39
2022/06/03 08:27:35;;;;;;;3.92;1.33;;;34.30;42.60;;;;;;5008558;28;20072;-39
2022/06/03 08:30:12;;;;;;;3.45;1.25;;;34.60;42.60;;;;;;5008284;28;20471;-39
2022/06/03 08:32:40;;;;;;;4.22;1.13;;;35.10;42.40;;;;;;5008807;28;20473;-39
2022/06/03 08:35:18;;;;;;;5.68;1.38;;;35.00;42.00;;;;;;5008267;28;20497;-39
2022/06/03 08:37:49;;;;;;;2.30;1.02;;;34.80;41.00;;;;;;5008389;28;20046;-39
2022/06/03 08:40:27;;;;;;;;;;;34.60;40.80;;;;;;5009213;28;20045;-39
2022/06/03 08:43:10;;;;;;;3.58;0.90;;;34.50;40.10;;;;;;5008637;28;19917;-39
2022/06/03 08:46:07;;;;;;;3.47;1.30;;;34.60;41.60;;;;;;5008753;28;20041;-39
2022/06/03 08:48:42;;;;;;;2.10;0.90;;;34.60;41.70;;;;;;5008535;28;20121;-38
2022/06/03 08:51:34;;;;;;;3.50;0.93;;;34.70;40.90;;;;;;5008569;28;20073;-39
2022/06/03 08:54:17;;;;;;;3.55;1.13;;;34.60;41.30;;;;;;5008003;28;20050;-38
2022/06/03 08:56:46;;;;;;;3.28;1.20;;;34.60;41.20;;;;;;5008380;28;20520;-39
2022/06/03 08:59:27;;;;;;;3.92;1.05;;;35.00;41.30;;;;;;5008223;28;20499;-38
2022/06/03 09:01:55;;;;;;;;;;;34.80;40.40;;;;;;5008258;28;20092;-39
2022/06/03 09:04:21;;;;;;;3.15;1.02;;;34.60;40.00;;;;;;5008276;28;19948;-38
2022/06/03 09:06:56;;;;;;;3.58;1.00;;;34.30;40.40;;;;;;5008045;28;20445;-39
2022/06/03 09:09:30;;;;;;;3.50;1.00;;;34.30;41.40;;;;;;5009376;28;21080;-39
2022/06/03 09:12:29;;;;;;;5.95;1.15;;;34.80;41.00;;;;;;5010848;28;20111;-38
2022/06/03 09:14:59;;;;;;;5.43;1.80;;;35.00;39.90;;;;;;5011550;28;20046;-39
2022/06/03 09:17:44;;;;;;;;;;;34.90;39.60;;;;;;5012088;28;20081;-40
2022/06/03 09:20:15;;;;;;;2.22;1.10;;;35.20;41.30;;;;;;5010921;28;19928;-39
2022/06/03 09:22:44;;;;;;;2.80;1.15;;;35.20;40.20;;;;;;5011750;28;20046;-39
2022/06/03 09:25:13;;;;;;;3.10;1.20;;;35.40;39.60;;;;;;5010573;28;20041;-39
2022/06/03 09:27:41;;;;;;;2.22;0.82;;;35.30;39.40;;;;;;5011322;28;20508;-40
2022/06/03 09:30:09;;;;;;;2.05;0.77;;;35.20;39.40;;;;;;5010830;28;20140;-40
2022/06/03 09:32:44;;;;;;;4.10;0.85;;;35.60;39.70;;;;;;5011683;28;20527;-39
2022/06/03 09:35:16;;;;;;;2.22;1.05;;;35.90;38.60;;;;;;5011022;28;20286;-39
2022/06/03 09:37:46;;;;;;;2.83;0.88;;;35.70;39.40;;;;;;5011219;28;20053;-40
2022/06/03 09:40:24;;;;;;;2.05;0.60;;;35.70;39.00;;;;;;5010876;28;20487;-39
2022/06/03 09:43:13;;;;;;;2.67;1.10;;;35.60;38.20;;;;;;5011180;28;20151;-40
2022/06/03 09:45:40;;;;;;;5.28;1.23;;;35.50;38.20;;;;;;5012225;28;20154;-40
2022/06/03 09:48:08;;;;;;;2.47;0.80;;;35.60;38.00;;;;;;5012328;28;20053;-39
2022/06/03 09:50:34;;;;;;;2.58;0.75;;;36.00;38.60;;;;;;5012543;28;20077;-40
2022/06/03 09:53:08;;;;;;;2.58;0.90;;;36.20;38.60;;;;;;5012516;28;20041;-40
2022/06/03 09:55:47;;;;;;;2.22;0.75;;;36.00;37.50;;;;;;5012727;28;20046;-39
2022/06/03 09:58:17;;;;;;;2.15;1.05;;;35.60;38.40;;;;;;5012519;28;20053;-39
2022/06/03 10:00:47;;;;;;;2.40;0.60;;;35.40;38.90;;;;;;5012614;28;20038;-40
2022/06/03 10:03:14;;;;;;;1.45;0.70;;;35.40;38.00;;;;;;5012499;28;20125;-39
2022/06/03 10:05:42;;;;;;;3.22;1.08;;;35.60;38.00;;;;;;5012291;28;20053;-39
2022/06/03 10:08:11;;;;;;;1.80;0.70;;;35.40;38.40;;;;;;5012187;28;20428;-40
2022/06/03 10:13:22;;;;;;;1.92;0.75;;;34.50;38.40;;;;;;5011046;28;20057;-39
2022/06/03 10:15:53;;;;;;;1.92;1.00;;;33.90;39.30;;;;;;5010256;28;20052;-38
2022/06/03 10:18:39;;;;;;;2.67;0.70;;;33.80;39.40;;;;;;5009863;28;20108;-41
2022/06/03 10:21:05;;;;;;;1.70;0.77;;;33.80;40.30;;;;;;5010192;28;20052;-39
2022/06/03 10:23:36;;;;;;;2.30;0.80;;;33.70;39.70;;;;;;5010108;28;20453;-41
2022/06/03 10:26:04;;;;;;;1.90;0.80;;;33.50;38.80;;;;;;5010209;28;20044;-42
2022/06/03 10:28:39;;;;;;;5.32;0.60;;;33.00;39.60;;;;;;5010445;28;20143;-38
2022/06/03 10:31:11;;;;;;;4.55;0.70;;;32.50;41.50;;;;;;5010173;28;20363;-39
2022/06/03 10:33:37;;;;;;;2.00;0.57;;;32.90;41.40;;;;;;5010732;28;20042;-38
2022/06/03 10:36:04;;;;;;;1.73;0.50;;;33.10;40.40;;;;;;5009926;28;20124;-38
2022/06/03 10:38:33;;;;;;;1.85;0.93;;;32.80;40.10;;;;;;5010106;28;20041;-38
2022/06/03 10:41:09;;;;;;;1.25;0.50;;;32.80;39.60;;;;;;5009496;28;20042;-38
2022/06/03 10:43:39;;;;;;;2.17;0.80;;;32.40;40.80;;;;;;5010064;28;20434;-38
2022/06/03 10:46:19;;;;;;;3.10;1.17;;;31.90;40.00;;;;;;5009684;28;20044;-38
2022/06/03 10:48:46;;;;;;;3.28;0.82;;;31.30;41.50;;;;;;5009789;28;20040;-38
2022/06/03 11:02:44;;;;;;;1.92;0.60;;;25.70;48.70;;;;;;5009758;28;20064;-37
2022/06/03 11:05:22;;;;;;;2.20;0.98;;;24.90;48.90;;;;;;5009603;28;20469;-37
2022/06/03 11:08:19;;;;;;;2.80;1.10;;;24.50;53.00;;;;;;5009961;28;20157;-37
2022/06/03 11:10:51;;;;;;;4.07;1.10;;;23.90;52.60;;;;;;5008955;28;20081;-37
2022/06/03 11:13:29;;;;;;;3.35;0.93;;;23.60;52.80;;;;;;5009693;28;20088;-37
2022/06/03 11:15:55;;;;;;;3.40;1.00;;;23.50;52.60;;;;;;5009841;28;20046;-42
2022/06/03 11:18:32;;;;;;;4.15;0.95;;;23.20;60.40;;;;;;5009227;28;20034;-37
2022/06/03 11:21:16;;;;;;;2.47;1.08;;;23.00;52.30;;;;;;5008107;28;20088;-37
2022/06/03 11:23:42;;;;;;;4.90;0.93;;;22.90;52.00;;;;;;5009546;28;20042;-37
2022/06/03 11:26:09;;;;;;;2.15;1.15;;;22.70;53.70;;;;;;5009564;28;20108;-37
2022/06/03 11:28:40;;;;;;;2.42;0.80;;;22.40;53.50;;;;;;5009764;28;20038;-37
2022/06/03 11:31:09;;;;;;;2.78;1.02;;;22.40;54.70;;;;;;5009474;28;20070;-38
2022/06/03 11:33:53;;;;;;;3.30;1.35;;;22.20;54.70;;;;;;5009489;28;20096;-37
2022/06/03 11:36:18;;;;;;;2.30;0.57;;;22.00;55.50;;;;;;5009551;28;20111;-37
2022/06/03 11:38:49;;;;;;;2.55;0.88;;;21.90;56.20;;;;;;5009299;28;20437;-37
2022/06/03 11:41:23;;;;;;;2.75;0.93;;;21.90;57.00;;;;;;5009307;28;20569;-37
2022/06/03 11:44:10;;;;;;;3.40;1.02;;;21.80;58.00;;;;;;5009388;28;20060;-37
2022/06/03 11:46:54;;;;;;;2.97;1.00;;;21.80;58.80;;;;;;5009681;28;20092;-37
2022/06/03 11:49:21;;;;;;;1.83;0.85;;;21.80;57.50;;;;;;5009324;28;20052;-38
2022/06/03 11:51:48;;;;;;;3.67;0.98;;;21.80;57.20;;;;;;5009591;28;20381;-37
2022/06/03 11:54:19;;;;;;;2.75;0.90;;;21.70;57.10;;;;;;5009119;28;20033;-37
2022/06/03 11:56:46;;;;;;;2.10;0.73;;;21.80;57.40;;;;;;5009201;28;20365;-37
2022/06/03 11:59:12;;;;;;;4.15;0.95;;;21.80;57.90;;;;;;5008559;28;20572;-37
2022/06/03 12:01:50;;;;;;;3.08;0.85;;;21.80;57.80;;;;;;5009181;28;20132;-38
2022/06/03 12:04:25;;;;;;;2.72;0.85;;;21.80;58.20;;;;;;5008941;28;20053;-37
2022/06/03 12:07:03;;;;;;;2.97;0.52;;;21.80;56.20;;;;;;5008998;28;20038;-37
2022/06/03 12:09:57;;;;;;;2.22;0.60;;;21.90;56.10;;;;;;5008607;28;20580;-38
2022/06/03 12:15:30;;;;;;;4.20;0.70;;;21.90;56.70;;;;;;5008922;28;20049;-37
2022/06/03 12:18:39;;;;;;;2.42;0.60;;;21.80;57.70;;;;;;5009260;28;20069;-37
2022/06/03 12:21:29;;;;;;;1.85;0.73;;;21.80;58.40;;;;;;5008918;28;20053;-37
2022/06/03 12:23:55;;;;;;;1.92;0.93;;;21.70;56.70;;;;;;5008211;28;20108;-37
2022/06/03 12:26:31;;;;;;;1.70;0.68;;;21.60;57.20;;;;;;5008571;28;20077;-37
2022/06/03 12:29:17;;;;;;;4.50;1.42;;;21.60;56.50;;;;;;5008720;28;20110;-37
2022/06/03 12:31:45;;;;;;;2.13;0.60;;;21.60;58.30;;;;;;5008753;28;20413;-37
2022/06/03 12:34:20;;;;;;;1.70;0.47;;;21.60;56.90;;;;;;5008525;28;20541;-37
2022/06/03 12:36:52;;;;;;;2.92;0.57;;;21.50;56.40;;;;;;5008857;28;20049;-38
2022/06/03 12:39:23;;;;;;;5.85;0.73;;;21.60;56.50;;;;;;5008428;28;20038;-37
2022/06/03 12:41:48;;;;;;;1.77;0.35;;;21.70;57.90;;;;;;5008864;28;20050;-37
2022/06/03 12:44:42;;;;;;;1.33;0.50;;;21.70;58.20;;;;;;5009626;28;20505;-37
2022/06/03 12:47:27;;;;;;;1.38;0.57;;;21.60;57.40;;;;;;5012385;28;20045;-37
2022/06/03 12:50:19;;;;;;;3.60;0.60;;;21.50;58.00;;;;;;5012093;28;20125;-37
2022/06/03 12:52:46;;;;;;;4.30;1.10;;;21.40;57.80;;;;;;5011347;28;20054;-37
2022/06/03 12:55:14;;;;;;;2.08;0.60;;;21.40;58.40;;;;;;5011749;28;20049;-37
2022/06/03 12:57:51;;;;;;;1.65;0.40;;;21.30;57.90;;;;;;5012018;28;20477;-37
2022/06/03 13:00:36;;;;;;;1.30;0.40;;;21.30;57.80;;;;;;5011718;28;20069;-43
2022/06/03 13:03:25;;;;;;;1.75;0.45;;;21.20;57.90;;;;;;5012028;28;20042;-37
2022/06/03 13:05:57;;;;;;;2.20;0.60;;;21.30;59.10;;;;;;5011277;28;20049;-37
2022/06/03 13:08:29;;;;;;;1.15;0.60;;;21.30;58.40;;;;;;5011837;28;20045;-37
2022/06/03 13:11:00;;;;;;;1.52;0.50;;;21.30;58.30;;;;;;5011804;28;20058;-37
2022/06/03 13:13:29;;;;;;;3.05;0.98;;;21.40;58.80;;;;;;5011825;28;20440;-37
2022/06/03 13:16:21;;;;;;;1.90;0.50;;;21.50;59.50;;;;;;5011795;28;20366;-37
2022/06/03 13:18:55;;;;;;;2.25;0.77;;;21.40;57.10;;;;;;5012126;28;20042;-37
2022/06/03 13:21:23;;;;;;;3.65;0.70;;;21.40;57.90;;;;;;5011573;28;20409;-37
2022/06/03 13:23:51;;;;;;;1.92;0.57;;;21.40;59.10;;;;;;5011851;28;20057;-37
2022/06/03 13:26:20;;;;;;;1.65;0.80;;;21.40;59.90;;;;;;5011887;28;20117;-38
2022/06/03 13:29:07;;;;;;;2.88;0.77;;;21.40;57.70;;;;;;5012009;28;20042;-37
2022/06/03 13:31:43;;;;;;;1.35;0.40;;;21.30;57.80;;;;;;5011190;28;20050;-37
2022/06/03 13:34:09;;;;;;;1.67;0.80;;;21.30;57.60;;;;;;5011745;28;20063;-37
2022/06/03 13:36:38;;;;;;;1.92;0.65;;;21.30;57.70;;;;;;5011429;28;20440;-37
2022/06/03 13:39:06;;;;;;;3.22;0.60;;;21.40;57.10;;;;;;5011384;28;20505;-37
2022/06/03 13:44:42;;;;;;;2.85;0.30;;;21.40;58.40;;;;;;5011317;28;20125;-37
2022/06/03 13:47:18;;;;;;;4.50;0.45;;;21.30;57.30;;;;;;5011439;28;20064;-38
2022/06/03 13:50:03;;;;;;;1.67;0.50;;;21.30;57.60;;;;;;5010848;28;20557;-37
2022/06/03 13:52:36;;;;;;;3.17;0.60;;;21.40;57.50;;;;;;5010552;28;20493;-37
2022/06/03 13:55:15;;;;;;;1.73;0.35;;;21.30;58.60;;;;;;5008749;28;20405;-37
2022/06/03 13:57:51;;;;;;;1.20;0.50;;;21.30;59.10;;;;;;5010755;28;20100;-37
2022/06/03 14:00:27;;;;;;;2.22;0.50;;;21.40;59.80;;;;;;5010813;28;20054;-37
2022/06/03 14:03:13;;;;;;;0.82;0.30;;;21.50;60.60;;;;;;5011095;28;20077;-37
2022/06/03 14:05:47;;;;;;;2.03;0.40;;;21.60;58.50;;;;;;5010789;28;20456;-37
2022/06/03 14:08:19;;;;;;;2.58;0.60;;;21.50;60.10;;;;;;5010955;28;20077;-37
2022/06/03 14:11:03;;;;;;;3.03;0.30;;;21.70;58.50;;;;;;5010517;28;20058;-37
2022/06/03 14:13:37;;;;;;;2.22;0.40;;;21.40;59.40;;;;;;5010653;28;20064;-37
2022/06/03 14:16:28;;;;;;;1.27;0.30;;;21.50;58.80;;;;;;5009330;28;20092;-38
2022/06/03 14:19:09;;;;;;;3.40;0.93;;;21.60;59.80;;;;;;5010611;28;20125;-37
2022/06/03 14:21:38;;;;;;;1.33;0.40;;;21.30;59.10;;;;;;5010436;28;20049;-37
2022/06/03 14:24:29;;;;;;;2.15;0.43;;;21.20;59.50;;;;;;5010294;28;20560;-37
2022/06/03 14:27:06;;;;;;;1.35;0.47;;;21.20;58.30;;;;;;5009952;28;20049;-37
2022/06/03 14:29:56;;;;;;;3.72;0.60;;;21.10;59.30;;;;;;5008610;28;20367;-37
2022/06/03 14:32:25;;;;;;;1.02;0.40;;;21.10;58.30;;;;;;5010006;28;20050;-37
2022/06/03 14:34:51;;;;;;;2.92;0.52;;;21.10;60.50;;;;;;5008688;28;20486;-52